This is the latest recevied weather packets stored in our database for station/object SP6PWT-13. If no packets are shown the sender has not sent any weather packets the latest 1 day(s).
| Time | Temp. | Humidity | Pressure | Rain* | Wind** | Luminosity | Snow |
|---|---|---|---|---|---|---|---|
| 1778056215 | 18.89° C | 65% | 989.7 hPa | 0 mm | - | 219 W/m² | - |
| 1778055011 | 18.33° C | 66% | 989.5 hPa | 0 mm | - | 335 W/m² | - |
| 1778054110 | 18.33° C | 67% | 989.6 hPa | 0 mm | - | 107 W/m² | - |
| 1778053810 | 17.78° C | 68% | 989.4 hPa | 0 mm | - | 217 W/m² | - |
| 1778053510 | 17.78° C | 68% | 989.3 hPa | 0 mm | - | 252 W/m² | - |
| 1778053209 | 17.78° C | 68% | 989.6 hPa | 0 mm | - | 233 W/m² | - |
| 1778052306 | 17.22° C | 70% | 989.4 hPa | 0 mm | - | 126 W/m² | - |
| 1778050503 | 16.67° C | 71% | 989.3 hPa | 0 mm | - | 367 W/m² | - |
| 1778050202 | 16.67° C | 71% | 989.4 hPa | 0 mm | - | 357 W/m² | - |
| 1778048699 | 15° C | 77% | 989 hPa | 0 mm | - | 303 W/m² | - |
| 1778048398 | 15° C | 76% | 989.1 hPa | 0 mm | - | 91 W/m² | - |
| 1778048098 | 15° C | 75% | 989.3 hPa | 0 mm | - | 206 W/m² | - |
| 1778047797 | 15° C | 76% | 989.2 hPa | 0 mm | - | 107 W/m² | - |
| 1778047496 | 14.44° C | 79% | 989.2 hPa | 0 mm | - | 242 W/m² | - |
| 1778047195 | 13.89° C | 80% | 989.2 hPa | 0 mm | - | 118 W/m² | - |
| 1778046895 | 13.89° C | 80% | 989.3 hPa | 0 mm | - | 267 W/m² | - |
| 1778046594 | 13.89° C | 79% | 989.2 hPa | 0 mm | - | 95 W/m² | - |
| 1778046293 | 13.89° C | 79% | 989.1 hPa | 0 mm | - | 68 W/m² | - |
| 1778045993 | 13.89° C | 79% | 988.9 hPa | 0 mm | - | 64 W/m² | - |
| 1778045693 | 13.89° C | 78% | 989 hPa | 0 mm | - | 95 W/m² | - |
| 1778045392 | 14.44° C | 77% | 988.7 hPa | 0 mm | - | 78 W/m² | - |
| 1778045091 | 14.44° C | 79% | 988.9 hPa | 0 mm | - | 99 W/m² | - |
| 1778044791 | 13.89° C | 81% | 988.8 hPa | 0 mm | - | 92 W/m² | - |
| 1778044490 | 12.78° C | 82% | 988.8 hPa | 0 mm | - | 99 W/m² | - |
| 1778043589 | 12.78° C | 83% | 988.8 hPa | 0 mm | - | 90 W/m² | - |
* Rain latest hour (hover to see other rain measurements)
** Current wind speed in m/s (hover to see current wind gust speed)